createdAt,value
2022-11-27T00:00:31.038Z,5.34
2022-11-27T00:01:31.037Z,5.35
2022-11-27T00:02:31.953Z,5.50
2022-11-27T00:03:31.094Z,5.40
2022-11-27T00:04:30.991Z,5.34
2022-11-27T00:05:30.992Z,5.43
2022-11-27T00:06:30.958Z,5.43
2022-11-27T00:07:31.048Z,5.40
2022-11-27T00:08:30.948Z,5.41
2022-11-27T00:09:30.928Z,5.40
2022-11-27T00:10:30.931Z,5.34
2022-11-27T00:11:30.925Z,5.41
2022-11-27T00:12:30.892Z,5.40
2022-11-27T00:13:30.884Z,5.45
2022-11-27T00:14:30.885Z,5.38
2022-11-27T00:15:30.944Z,5.35
2022-11-27T00:16:30.911Z,5.40
2022-11-27T00:17:30.854Z,5.40
2022-11-27T00:18:30.840Z,5.34
2022-11-27T00:19:30.835Z,5.34
2022-11-27T00:20:30.802Z,5.31
2022-11-27T00:21:30.806Z,5.38
2022-11-27T00:22:30.778Z,5.37
2022-11-27T00:23:30.814Z,5.41
2022-11-27T00:24:30.769Z,5.43
2022-11-27T00:25:30.769Z,5.41
2022-11-27T00:26:35.897Z,5.35
2022-11-27T00:27:31.737Z,5.45
2022-11-27T00:28:30.721Z,5.41
2022-11-27T00:29:30.721Z,5.35
2022-11-27T00:30:30.740Z,5.52
2022-11-27T00:31:30.748Z,5.43
2022-11-27T00:32:30.665Z,5.56
2022-11-27T00:33:30.663Z,5.55
2022-11-27T00:34:30.658Z,5.55
2022-11-27T00:35:30.637Z,5.45
2022-11-27T00:36:30.639Z,5.53
2022-11-27T00:37:30.633Z,5.50
2022-11-27T00:38:33.517Z,5.49
2022-11-27T00:39:31.638Z,5.45
2022-11-27T00:40:30.575Z,5.48
2022-11-27T00:41:30.578Z,5.56
2022-11-27T00:42:30.553Z,5.56
2022-11-27T00:43:30.545Z,5.49
2022-11-27T00:44:30.547Z,5.52
2022-11-27T00:45:30.523Z,5.52
2022-11-27T00:46:30.567Z,5.45
2022-11-27T00:47:30.504Z,5.50
2022-11-27T00:48:30.485Z,5.49
2022-11-27T00:49:30.491Z,5.66
2022-11-27T00:50:30.481Z,5.59
2022-11-27T00:51:30.471Z,5.57
2022-11-27T00:52:30.440Z,5.60
2022-11-27T00:53:30.442Z,5.64
2022-11-27T00:54:30.434Z,5.53
2022-11-27T00:55:30.432Z,5.60
2022-11-27T00:56:30.413Z,5.67
2022-11-27T00:57:30.388Z,5.57
2022-11-27T00:58:30.372Z,5.66
2022-11-27T00:59:30.368Z,5.70
2022-11-27T01:00:30.377Z,5.71
2022-11-27T01:01:30.462Z,5.74
2022-11-27T01:02:30.423Z,5.70
2022-11-27T01:03:30.334Z,5.77
2022-11-27T01:04:30.321Z,5.68
2022-11-27T01:05:30.321Z,5.77
2022-11-27T01:06:30.296Z,5.75
2022-11-27T01:07:30.339Z,5.66
2022-11-27T01:08:30.300Z,5.71
2022-11-27T01:09:30.252Z,5.78
2022-11-27T01:10:30.237Z,5.74
2022-11-27T01:11:30.265Z,5.73
2022-11-27T01:12:30.219Z,5.77
2022-11-27T01:13:30.208Z,5.68
2022-11-27T01:14:30.206Z,5.73
2022-11-27T01:15:30.185Z,5.68
2022-11-27T01:16:30.256Z,5.71
2022-11-27T01:17:30.167Z,5.71
2022-11-27T01:18:30.164Z,5.70
2022-11-27T01:19:30.156Z,5.77
2022-11-27T01:20:30.138Z,5.74
2022-11-27T01:21:30.131Z,5.77
2022-11-27T01:22:30.116Z,5.71
2022-11-27T01:23:30.100Z,5.81
2022-11-27T01:24:30.092Z,5.74
2022-11-27T01:25:30.074Z,5.77
2022-11-27T01:26:30.080Z,5.70
2022-11-27T01:27:30.074Z,5.82
2022-11-27T01:28:30.036Z,5.81
2022-11-27T01:29:30.032Z,5.77
2022-11-27T01:30:30.013Z,5.68
2022-11-27T01:31:30.160Z,5.81
2022-11-27T01:32:30.015Z,5.71
2022-11-27T01:33:29.983Z,5.77
2022-11-27T01:34:29.982Z,5.71
2022-11-27T01:35:31.324Z,5.68
2022-11-27T01:36:30.261Z,5.82
2022-11-27T01:37:29.963Z,5.82
2022-11-27T01:38:29.923Z,5.75
2022-11-27T01:39:29.928Z,5.71
2022-11-27T01:40:29.914Z,5.70
2022-11-27T01:41:29.907Z,5.78
2022-11-27T01:42:29.907Z,5.81
2022-11-27T01:43:29.895Z,5.74
2022-11-27T01:44:29.860Z,5.77
2022-11-27T01:45:29.872Z,5.82
2022-11-27T01:46:29.946Z,5.83
2022-11-27T01:47:29.840Z,5.83
2022-11-27T01:48:29.824Z,5.81
2022-11-27T01:49:29.805Z,5.78
2022-11-27T01:50:29.801Z,5.82
2022-11-27T01:51:29.795Z,5.85
2022-11-27T01:52:29.815Z,5.71
2022-11-27T01:53:29.765Z,5.78
2022-11-27T01:54:29.756Z,5.81
2022-11-27T01:55:29.738Z,5.77
2022-11-27T01:56:29.732Z,5.75
2022-11-27T01:57:29.728Z,5.83
2022-11-27T01:58:29.705Z,5.73
2022-11-27T01:59:29.736Z,5.77
2022-11-27T02:00:29.677Z,5.70
2022-11-27T02:01:29.721Z,5.59
2022-11-27T02:02:29.768Z,5.77
2022-11-27T02:03:29.662Z,5.81
2022-11-27T02:04:29.650Z,5.73
2022-11-27T02:05:29.650Z,5.75
2022-11-27T02:06:29.611Z,5.78
2022-11-27T02:07:29.673Z,5.67
2022-11-27T02:08:29.593Z,5.73
2022-11-27T02:09:29.598Z,5.74
2022-11-27T02:10:29.563Z,5.89
2022-11-27T02:11:29.570Z,5.75
2022-11-27T02:12:29.541Z,5.81
2022-11-27T02:13:29.553Z,5.75
2022-11-27T02:14:29.531Z,5.77
2022-11-27T02:15:29.515Z,5.75
2022-11-27T02:16:29.653Z,5.75
2022-11-27T07:56:06.864Z,6.72
2022-11-27T07:57:06.742Z,6.80
2022-11-27T07:58:06.721Z,6.76
2022-11-27T07:59:06.689Z,6.81
2022-11-27T08:00:06.689Z,6.72
2022-11-27T08:01:06.725Z,6.79
2022-11-27T08:02:06.681Z,6.91
2022-11-27T08:03:06.651Z,6.80
2022-11-27T08:04:06.651Z,6.84
2022-11-27T08:05:12.177Z,6.81
2022-11-27T08:06:07.607Z,6.84
2022-11-27T08:07:06.634Z,6.95
2022-11-27T08:08:06.692Z,6.84
2022-11-27T08:09:06.583Z,6.90
2022-11-27T08:10:06.578Z,6.87
2022-11-27T08:11:06.572Z,6.98
2022-11-27T08:12:06.688Z,6.81
2022-11-27T08:13:06.590Z,6.83
2022-11-27T08:14:06.567Z,6.95
2022-11-27T08:15:06.507Z,6.90
2022-11-27T08:16:06.804Z,7.01
2022-11-27T08:17:06.492Z,6.99
2022-11-27T08:18:06.488Z,6.98
2022-11-27T08:19:06.470Z,7.01
2022-11-27T08:20:06.485Z,7.05
2022-11-27T08:21:06.447Z,7.09
2022-11-27T08:22:06.432Z,7.12
2022-11-27T08:23:06.413Z,7.02
2022-11-27T08:24:06.451Z,7.15
2022-11-27T08:25:06.401Z,7.05
2022-11-27T08:26:06.397Z,7.15
2022-11-27T08:27:06.370Z,7.17
2022-11-27T08:28:06.491Z,7.15
2022-11-27T08:29:06.345Z,7.26
2022-11-27T08:30:06.378Z,7.23
2022-11-27T08:31:06.326Z,7.22
2022-11-27T08:32:06.365Z,7.22
2022-11-27T08:33:06.329Z,7.19
2022-11-27T08:34:06.310Z,7.23
2022-11-27T08:35:06.292Z,7.31
2022-11-27T08:36:09.034Z,7.31
2022-11-27T08:37:06.256Z,7.24
2022-11-27T08:38:06.246Z,7.29
2022-11-27T08:39:06.232Z,7.37
2022-11-27T08:40:06.222Z,7.44
2022-11-27T08:41:06.206Z,7.41
2022-11-27T08:42:06.228Z,7.29
2022-11-27T08:43:06.185Z,7.35
2022-11-27T08:44:09.297Z,7.29
2022-11-27T08:45:06.175Z,7.49
2022-11-27T08:46:06.364Z,7.45
2022-11-27T08:47:06.195Z,7.42
2022-11-27T08:48:06.144Z,7.47
2022-11-27T08:49:06.126Z,7.47
2022-11-27T08:50:06.114Z,7.50
2022-11-27T08:51:06.110Z,7.56
2022-11-27T08:52:06.105Z,7.63
2022-11-27T08:53:06.105Z,7.67
2022-11-27T08:54:06.079Z,7.55
2022-11-27T08:55:06.049Z,7.63
2022-11-27T08:56:06.055Z,7.60
2022-11-27T08:57:06.025Z,7.82
2022-11-27T08:58:06.019Z,7.63
2022-11-27T08:59:06.018Z,7.69
2022-11-27T09:00:06.134Z,7.82
2022-11-27T09:01:06.024Z,7.79
2022-11-27T09:02:05.986Z,7.82
2022-11-27T09:03:05.956Z,7.84
2022-11-27T09:04:06.062Z,7.89
2022-11-27T09:05:05.945Z,7.87
2022-11-27T09:06:05.943Z,7.93
2022-11-27T09:07:05.915Z,7.92
2022-11-27T09:08:05.904Z,7.92
2022-11-27T09:09:05.894Z,7.89
2022-11-27T09:10:05.919Z,7.92
2022-11-27T09:11:05.867Z,7.94
2022-11-27T09:12:05.884Z,8.00
2022-11-27T09:13:05.844Z,8.04
2022-11-27T09:14:05.859Z,8.08
2022-11-27T09:15:05.835Z,8.03
2022-11-27T09:16:11.827Z,8.00
2022-11-27T09:17:06.927Z,7.99
2022-11-27T09:18:05.805Z,8.00
2022-11-27T09:19:05.775Z,8.08
2022-11-27T09:20:05.780Z,8.08
2022-11-27T09:21:05.755Z,8.12
2022-11-27T09:22:05.773Z,7.99
2022-11-27T09:23:10.134Z,8.04
2022-11-27T09:24:06.725Z,7.94
2022-11-27T09:25:05.737Z,8.03
2022-11-27T09:26:05.714Z,8.00
2022-11-27T09:27:05.714Z,8.04
2022-11-27T09:28:05.691Z,8.14
2022-11-27T09:29:05.665Z,8.15
2022-11-27T09:30:05.669Z,8.10
2022-11-27T09:31:05.653Z,8.14
2022-11-27T09:32:05.661Z,8.12
2022-11-27T09:33:05.752Z,8.17
2022-11-27T09:34:05.625Z,8.17
2022-11-27T09:35:05.628Z,8.10
2022-11-27T09:36:05.604Z,8.26
2022-11-27T09:37:05.571Z,8.30
2022-11-27T09:38:05.753Z,8.15
2022-11-27T09:39:05.566Z,8.22
2022-11-27T09:40:05.557Z,8.25
2022-11-27T09:41:05.527Z,8.22
2022-11-27T09:42:05.540Z,8.22
2022-11-27T09:43:05.518Z,8.22
2022-11-27T09:44:05.530Z,8.29
2022-11-27T09:45:05.499Z,8.22
2022-11-27T09:46:05.530Z,8.30
2022-11-27T09:47:05.472Z,8.25
2022-11-27T09:48:05.480Z,8.20
2022-11-27T09:49:05.566Z,8.20
2022-11-27T09:50:05.442Z,8.40
2022-11-27T09:51:05.432Z,8.33
2022-11-27T09:52:05.408Z,8.33
2022-11-27T09:53:05.410Z,8.39
2022-11-27T09:54:05.420Z,8.33
2022-11-27T09:55:05.369Z,8.54
2022-11-27T09:56:05.376Z,8.58
2022-11-27T09:57:05.358Z,8.51
2022-11-27T09:58:05.365Z,8.57
2022-11-27T09:59:05.431Z,8.62
2022-11-27T10:00:05.331Z,8.60
2022-11-27T10:01:05.335Z,8.73
2022-11-27T10:02:05.360Z,8.66
2022-11-27T10:03:05.416Z,8.79
2022-11-27T10:04:05.290Z,8.87
2022-11-27T10:05:13.951Z,9.04
2022-11-27T10:06:06.261Z,8.99
2022-11-27T10:07:05.244Z,9.02
2022-11-27T10:08:07.122Z,9.24
2022-11-27T10:09:05.230Z,9.28
2022-11-27T10:10:05.214Z,9.25
2022-11-27T10:11:05.256Z,9.38
2022-11-27T10:12:05.192Z,9.30
2022-11-27T10:13:05.175Z,9.38
2022-11-27T10:14:05.176Z,9.35
2022-11-27T10:15:05.153Z,9.43
2022-11-27T10:16:05.168Z,9.49
2022-11-27T10:17:05.207Z,9.49
2022-11-27T10:18:05.110Z,9.45
2022-11-27T10:19:05.110Z,9.45
2022-11-27T10:20:05.103Z,9.49
2022-11-27T10:21:05.199Z,9.56
2022-11-27T10:22:05.078Z,9.60
2022-11-27T10:23:05.055Z,9.60
2022-11-27T10:24:05.059Z,9.60
2022-11-27T10:25:05.089Z,9.60
2022-11-27T10:26:05.031Z,9.61
2022-11-27T10:27:05.004Z,9.58
2022-11-27T10:28:05.013Z,9.60
2022-11-27T10:29:04.993Z,9.58
2022-11-27T10:30:04.990Z,9.56
2022-11-27T10:31:04.955Z,9.52
2022-11-27T10:32:05.005Z,9.53
2022-11-27T10:33:04.988Z,9.52
2022-11-27T10:34:04.944Z,9.52
2022-11-27T10:35:05.869Z,9.49
2022-11-27T10:36:04.916Z,9.56
2022-11-27T10:37:05.006Z,9.53
2022-11-27T10:38:07.031Z,9.63
2022-11-27T10:39:04.882Z,9.52
2022-11-27T10:40:04.926Z,9.45
2022-11-27T10:41:04.843Z,9.60
2022-11-27T10:42:04.835Z,9.50
2022-11-27T10:43:04.827Z,9.53
2022-11-27T10:44:04.832Z,9.46
2022-11-27T10:45:04.796Z,9.48
2022-11-27T10:46:04.847Z,9.57
2022-11-27T10:47:04.791Z,9.57
2022-11-27T10:48:04.886Z,9.49
2022-11-27T10:49:04.771Z,9.53
2022-11-27T10:50:04.747Z,9.57
2022-11-27T10:51:04.759Z,9.66
2022-11-27T10:52:04.741Z,9.56
2022-11-27T10:53:04.832Z,9.53
2022-11-27T10:54:04.699Z,9.57
2022-11-27T10:55:04.705Z,9.61
2022-11-27T10:56:04.689Z,9.66
2022-11-27T10:57:04.675Z,9.66
2022-11-27T10:58:04.723Z,9.50
2022-11-27T10:59:04.640Z,9.70
2022-11-27T11:00:04.643Z,9.64
2022-11-27T11:01:04.758Z,9.70
2022-11-27T11:02:04.674Z,9.71
2022-11-27T11:03:04.634Z,9.73
2022-11-27T11:04:24.223Z,9.75
2022-11-27T11:05:31.232Z,9.75
2022-11-27T11:06:20.926Z,9.79
2022-11-27T11:07:05.550Z,9.76
2022-11-27T11:08:04.543Z,9.71
2022-11-27T11:09:04.658Z,9.71
2022-11-27T11:10:04.529Z,9.81
2022-11-27T11:11:04.525Z,9.71
2022-11-27T11:12:04.497Z,9.85
2022-11-27T11:13:04.494Z,9.83
2022-11-27T11:14:04.472Z,9.81
2022-11-27T11:15:04.467Z,9.86
2022-11-27T11:16:04.543Z,9.85
2022-11-27T11:17:04.509Z,9.94
2022-11-27T11:18:04.439Z,9.99
2022-11-27T11:19:04.424Z,9.96
2022-11-27T11:20:04.405Z,9.89
2022-11-27T11:21:04.403Z,9.94
2022-11-27T11:22:04.395Z,9.88
2022-11-27T11:23:04.365Z,9.99
2022-11-27T11:24:04.369Z,9.94
2022-11-27T11:25:04.457Z,9.86
2022-11-27T11:26:04.360Z,9.93
2022-11-27T11:27:04.331Z,9.71
2022-11-27T11:28:04.324Z,9.91
2022-11-27T11:29:04.309Z,9.85
2022-11-27T11:30:04.299Z,9.85
2022-11-27T11:31:04.273Z,9.97
2022-11-27T11:32:04.337Z,9.93
2022-11-27T11:33:04.267Z,9.91
2022-11-27T11:34:04.268Z,9.91
2022-11-27T11:35:04.239Z,9.83
2022-11-27T11:36:04.320Z,9.89
2022-11-27T11:37:04.206Z,9.86
2022-11-27T11:38:04.229Z,9.88
2022-11-27T11:39:04.195Z,9.89
2022-11-27T11:40:04.191Z,9.94
2022-11-27T11:41:04.296Z,9.99
2022-11-27T11:42:04.145Z,9.94
2022-11-27T11:43:04.166Z,9.89
2022-11-27T11:44:04.138Z,9.94
2022-11-27T11:45:04.129Z,9.91
2022-11-27T11:46:04.169Z,9.85
2022-11-27T11:47:04.110Z,9.96
2022-11-27T11:48:04.101Z,10.00
2022-11-27T11:49:04.087Z,10.01
2022-11-27T11:50:04.056Z,9.97
2022-11-27T11:51:04.072Z,10.01
2022-11-27T11:52:04.052Z,9.91
2022-11-27T11:53:04.044Z,9.97
2022-11-27T11:54:04.025Z,9.91
2022-11-27T11:55:04.017Z,10.10
2022-11-27T11:56:04.004Z,9.96
2022-11-27T11:57:04.105Z,10.09
2022-11-27T11:58:03.988Z,10.17
2022-11-27T11:59:03.963Z,10.12
2022-11-27T12:00:03.979Z,10.00
2022-11-27T12:01:25.964Z,10.12
2022-11-27T12:02:05.126Z,9.97
2022-11-27T12:03:04.036Z,9.97
2022-11-27T12:04:03.932Z,9.99
2022-11-27T12:05:03.896Z,9.93
2022-11-27T12:06:03.892Z,10.00
2022-11-27T12:07:03.885Z,9.94
2022-11-27T12:08:03.939Z,10.03
2022-11-27T12:09:03.857Z,9.96
2022-11-27T12:10:03.841Z,9.91
2022-11-27T12:11:03.837Z,9.96
2022-11-27T12:12:03.807Z,9.93
2022-11-27T12:13:03.925Z,9.88
2022-11-27T12:14:03.835Z,9.96
2022-11-27T12:15:03.777Z,9.89
2022-11-27T12:16:03.772Z,9.96
2022-11-27T12:17:03.859Z,10.03
2022-11-27T12:18:03.751Z,10.07
2022-11-27T12:19:03.748Z,10.03
2022-11-27T12:20:03.725Z,10.06
2022-11-27T12:21:03.707Z,10.01
2022-11-27T12:22:03.703Z,10.14
2022-11-27T12:23:03.684Z,10.07
2022-11-27T12:24:03.666Z,10.00
2022-11-27T12:25:03.720Z,10.14
2022-11-27T12:26:03.658Z,10.07
2022-11-27T12:27:03.640Z,10.07
2022-11-27T12:28:03.634Z,10.17
2022-11-27T12:29:03.743Z,10.07
2022-11-27T12:30:03.605Z,10.09
2022-11-27T12:31:03.703Z,10.06
2022-11-27T12:32:03.658Z,10.12
2022-11-27T12:33:03.568Z,10.12
2022-11-27T12:34:03.552Z,10.04
2022-11-27T12:35:03.546Z,10.12
2022-11-27T12:36:03.565Z,10.12
2022-11-27T12:37:03.526Z,10.00
2022-11-27T12:38:03.512Z,10.14
2022-11-27T12:39:03.520Z,10.07
2022-11-27T12:40:03.498Z,10.04
2022-11-27T12:41:03.514Z,10.17
2022-11-27T12:42:03.589Z,10.06
2022-11-27T12:43:03.459Z,10.09
2022-11-27T12:44:03.451Z,10.14
2022-11-27T12:45:03.562Z,10.18
2022-11-27T12:46:03.501Z,10.14
2022-11-27T12:47:03.426Z,10.04
2022-11-27T12:48:03.404Z,10.01
2022-11-27T12:49:03.432Z,10.14
2022-11-27T12:50:03.385Z,10.07
2022-11-27T12:51:03.383Z,10.17
2022-11-27T12:52:03.368Z,10.21
2022-11-27T12:53:03.361Z,10.12
2022-11-27T12:54:03.339Z,10.00
2022-11-27T12:55:03.340Z,10.12
2022-11-27T12:56:03.315Z,10.04
2022-11-27T12:57:03.309Z,10.09
2022-11-27T12:58:03.280Z,10.03
2022-11-27T12:59:03.288Z,10.07
2022-11-27T13:00:03.256Z,10.10
2022-11-27T13:01:03.535Z,10.17
2022-11-27T13:02:03.358Z,10.09
2022-11-27T13:03:03.238Z,10.01
2022-11-27T13:04:03.229Z,9.94
2022-11-27T13:05:03.205Z,10.14
2022-11-27T13:06:03.199Z,10.14
2022-11-27T13:07:03.194Z,10.00
2022-11-27T13:08:03.317Z,10.03
2022-11-27T13:09:03.171Z,10.12
2022-11-27T13:10:03.143Z,10.04
2022-11-27T13:11:03.180Z,10.10
2022-11-27T13:12:03.179Z,10.10
2022-11-27T13:13:03.117Z,10.06
2022-11-27T13:14:03.099Z,10.17
2022-11-27T13:15:03.089Z,10.15
2022-11-27T13:16:03.158Z,10.15
2022-11-27T13:17:03.300Z,10.09
2022-11-27T13:18:03.082Z,10.17
2022-11-27T13:19:03.050Z,10.09
2022-11-27T13:20:03.030Z,10.28
2022-11-27T13:21:03.047Z,10.17
2022-11-27T13:22:03.021Z,10.24
2022-11-27T13:23:03.032Z,10.22
2022-11-27T13:24:02.998Z,10.21
2022-11-27T13:25:02.996Z,10.24
2022-11-27T13:26:02.977Z,10.14
2022-11-27T13:27:02.954Z,10.17
2022-11-27T13:28:02.957Z,10.19
2022-11-27T13:29:02.929Z,10.18
2022-11-27T13:30:02.933Z,10.17
2022-11-27T13:31:02.914Z,10.14
2022-11-27T13:32:03.054Z,10.17
2022-11-27T13:33:03.012Z,10.12
2022-11-27T13:34:02.912Z,10.07
2022-11-27T13:35:02.874Z,10.21
2022-11-27T13:36:02.881Z,10.15
2022-11-27T13:37:02.839Z,10.18
2022-11-27T13:38:02.836Z,10.12
2022-11-27T13:39:02.834Z,10.14
2022-11-27T13:40:02.798Z,10.17
2022-11-27T13:41:02.805Z,10.17
2022-11-27T13:42:02.777Z,10.07
2022-11-27T13:43:02.800Z,10.12
2022-11-27T13:44:02.781Z,10.14
2022-11-27T13:45:02.747Z,10.09
2022-11-27T13:46:02.840Z,10.09
2022-11-27T13:47:02.741Z,10.09
2022-11-27T13:48:02.710Z,10.07
2022-11-27T13:49:02.833Z,10.01
2022-11-27T13:50:02.712Z,10.12
2022-11-27T13:51:02.701Z,10.04
2022-11-27T13:52:02.676Z,10.06
2022-11-27T13:53:02.670Z,10.03
2022-11-27T13:54:02.669Z,10.12
2022-11-27T13:55:02.650Z,10.10
2022-11-27T13:56:02.630Z,9.94
2022-11-27T13:57:02.612Z,9.96
2022-11-27T13:58:02.599Z,10.00
2022-11-27T13:59:02.587Z,10.17
2022-11-27T14:00:02.599Z,10.01
2022-11-27T14:01:02.676Z,10.01
2022-11-27T14:02:02.621Z,10.00
2022-11-27T14:03:02.552Z,10.10
2022-11-27T14:04:02.538Z,10.03
2022-11-27T14:05:02.650Z,10.07
2022-11-27T14:06:02.517Z,10.00
2022-11-27T14:07:02.510Z,10.03
2022-11-27T14:08:02.587Z,9.96
2022-11-27T14:09:02.490Z,10.00
2022-11-27T14:10:02.486Z,10.01
2022-11-27T14:11:02.463Z,10.10
2022-11-27T14:12:02.440Z,10.06
2022-11-27T14:13:02.439Z,9.94
2022-11-27T14:14:02.439Z,10.04
2022-11-27T14:15:02.419Z,10.10
2022-11-27T14:16:02.561Z,10.01
2022-11-27T14:17:02.396Z,10.04
2022-11-27T14:18:02.382Z,10.04
2022-11-27T14:19:02.371Z,10.01
2022-11-27T14:20:02.378Z,9.96
2022-11-27T14:21:02.454Z,10.04
2022-11-27T14:22:02.337Z,10.03
2022-11-27T14:23:14.735Z,9.97
2022-11-27T14:24:03.308Z,10.00
2022-11-27T14:25:02.305Z,9.91
2022-11-27T14:26:02.286Z,9.97
2022-11-27T14:27:02.267Z,9.89
2022-11-27T14:28:02.265Z,9.94
2022-11-27T14:29:02.245Z,9.93
2022-11-27T14:30:02.245Z,9.93
2022-11-27T14:31:02.234Z,9.94
2022-11-27T14:32:02.342Z,9.88
2022-11-27T14:33:02.202Z,9.79
2022-11-27T14:34:19.664Z,9.85
2022-11-27T14:35:03.191Z,9.79
2022-11-27T14:36:02.162Z,9.93
2022-11-27T14:37:02.270Z,9.79
2022-11-27T14:38:02.138Z,9.81
2022-11-27T14:39:02.136Z,9.88
2022-11-27T14:40:02.116Z,9.79
2022-11-27T14:41:02.140Z,9.85
2022-11-27T14:42:02.092Z,9.82
2022-11-27T14:43:02.089Z,9.83
2022-11-27T14:44:02.083Z,9.81
2022-11-27T14:45:02.071Z,9.82
2022-11-27T14:46:02.059Z,9.71
2022-11-27T14:47:02.168Z,9.85
2022-11-27T14:48:02.037Z,9.78
2022-11-27T14:49:02.016Z,9.67
2022-11-27T14:50:02.017Z,9.67
2022-11-27T14:51:01.993Z,9.66
2022-11-27T14:52:01.997Z,9.71
2022-11-27T14:53:07.872Z,9.70
2022-11-27T14:54:03.088Z,9.68
2022-11-27T14:55:01.947Z,9.64
2022-11-27T14:56:01.932Z,9.64
2022-11-27T14:57:01.947Z,9.57
2022-11-27T14:58:01.922Z,9.60
2022-11-27T14:59:01.902Z,9.56
2022-11-27T15:00:01.884Z,9.53
2022-11-27T15:01:01.880Z,9.43
2022-11-27T15:02:01.953Z,9.53
2022-11-27T15:03:02.047Z,9.48
2022-11-27T15:04:01.849Z,9.38
2022-11-27T15:05:01.855Z,9.42
2022-11-27T15:06:01.840Z,9.32
2022-11-27T15:07:01.817Z,9.35
2022-11-27T15:08:01.894Z,9.40
2022-11-27T15:09:30.362Z,9.25
2022-11-27T15:10:02.901Z,9.32
2022-11-27T15:11:01.780Z,9.32
2022-11-27T15:12:01.750Z,9.24
2022-11-27T15:13:01.773Z,9.30
2022-11-27T15:14:01.726Z,9.21
2022-11-27T15:15:01.721Z,9.20
2022-11-27T15:16:01.771Z,9.28
2022-11-27T15:17:01.717Z,9.21
2022-11-27T15:18:01.680Z,9.13
2022-11-27T15:19:01.696Z,9.15
2022-11-27T15:20:01.655Z,9.18
2022-11-27T15:21:01.648Z,9.16
2022-11-27T15:22:01.649Z,9.10
2022-11-27T15:23:01.629Z,9.10
2022-11-27T15:24:01.625Z,9.13
2022-11-27T15:25:01.642Z,8.97
2022-11-27T15:26:01.724Z,8.94
2022-11-27T15:27:01.579Z,8.90
2022-11-27T15:28:01.564Z,8.91
2022-11-27T15:29:01.570Z,8.93
2022-11-27T15:30:01.784Z,8.99
2022-11-27T15:31:01.546Z,8.94
2022-11-27T15:32:01.559Z,8.86
2022-11-27T15:33:01.519Z,8.83
2022-11-27T15:34:01.500Z,8.78
2022-11-27T15:35:01.518Z,8.72
2022-11-27T15:36:01.491Z,8.69
2022-11-27T15:37:01.496Z,8.79
2022-11-27T15:38:01.454Z,8.54
2022-11-27T15:39:01.446Z,8.63
2022-11-27T15:40:01.445Z,8.68
2022-11-27T15:41:01.452Z,8.58
2022-11-27T15:42:01.542Z,8.69
2022-11-27T15:43:01.413Z,8.58
2022-11-27T15:44:01.384Z,8.72
2022-11-27T15:45:01.384Z,8.73
2022-11-27T15:46:01.470Z,8.66
2022-11-27T15:47:01.371Z,8.75
2022-11-27T15:48:01.343Z,8.55
2022-11-27T15:49:01.330Z,8.71
2022-11-27T15:50:01.338Z,8.62
2022-11-27T15:51:01.346Z,8.69
2022-11-27T15:52:01.301Z,8.68
2022-11-27T15:53:01.302Z,8.60
2022-11-27T15:54:01.271Z,8.68
2022-11-27T15:55:01.269Z,8.68
2022-11-27T15:56:01.253Z,8.63
2022-11-27T15:57:01.262Z,8.62
2022-11-27T15:58:01.362Z,8.55
2022-11-27T15:59:01.213Z,8.58
2022-11-27T16:00:01.225Z,8.54
2022-11-27T16:01:01.239Z,8.58
2022-11-27T16:02:01.256Z,8.62
2022-11-27T16:03:01.180Z,8.53
2022-11-27T16:04:01.158Z,8.60
2022-11-27T16:05:01.144Z,8.55
2022-11-27T16:06:01.139Z,8.66
2022-11-27T16:07:01.506Z,8.60
2022-11-27T16:08:01.186Z,8.40
2022-11-27T16:09:01.113Z,8.55
2022-11-27T16:10:01.094Z,8.51
2022-11-27T16:11:01.092Z,8.45
2022-11-27T16:12:01.070Z,8.37
2022-11-27T16:13:01.086Z,8.40
2022-11-27T16:14:01.179Z,8.44
2022-11-27T16:15:01.040Z,8.39
2022-11-27T16:16:01.115Z,8.40
2022-11-27T16:17:01.076Z,8.48
2022-11-27T16:18:01.030Z,8.44
2022-11-27T16:19:01.005Z,8.42
2022-11-27T16:20:00.986Z,8.30
2022-11-27T16:21:00.967Z,8.44
2022-11-27T16:22:00.972Z,8.40
2022-11-27T16:23:00.955Z,8.48
2022-11-27T16:24:00.983Z,8.36
2022-11-27T16:25:00.938Z,8.54
2022-11-27T16:26:00.924Z,8.36
2022-11-27T16:27:00.911Z,8.32
2022-11-27T16:28:03.023Z,8.28
2022-11-27T16:29:00.899Z,8.39
2022-11-27T16:30:01.025Z,8.22
2022-11-27T16:31:00.862Z,8.33
2022-11-27T16:32:00.947Z,8.32
2022-11-27T16:33:00.843Z,8.20
2022-11-27T16:34:00.819Z,8.26
2022-11-27T16:35:00.823Z,8.26
2022-11-27T16:36:00.799Z,8.17
2022-11-27T16:37:00.788Z,8.21
2022-11-27T16:38:00.778Z,8.20
2022-11-27T16:39:00.760Z,8.17
2022-11-27T16:40:00.771Z,8.28
2022-11-27T16:41:00.738Z,8.18
2022-11-27T16:42:00.731Z,8.22
2022-11-27T16:43:00.730Z,8.18
2022-11-27T16:44:00.709Z,8.30
2022-11-27T16:45:00.723Z,8.18
2022-11-27T16:46:00.837Z,8.20
2022-11-27T16:47:00.670Z,8.29
2022-11-27T16:48:00.674Z,8.14
2022-11-27T16:49:00.650Z,8.17
2022-11-27T16:50:00.647Z,8.20
2022-11-27T16:51:00.651Z,8.11
2022-11-27T16:52:00.620Z,8.15
2022-11-27T16:53:00.616Z,8.20
2022-11-27T16:54:00.595Z,8.17
2022-11-27T16:55:00.592Z,8.15
2022-11-27T16:56:00.572Z,8.11
2022-11-27T16:57:00.567Z,8.11
2022-11-27T16:58:00.565Z,8.14
2022-11-27T16:59:03.111Z,8.02
2022-11-27T17:00:00.524Z,8.08
2022-11-27T17:01:00.598Z,8.17
2022-11-27T17:02:00.696Z,8.10
2022-11-27T17:03:00.516Z,7.97
2022-11-27T17:04:00.495Z,8.00
2022-11-27T17:05:00.471Z,7.99
2022-11-27T17:06:00.470Z,7.97
2022-11-27T17:07:00.450Z,8.08
2022-11-27T17:08:00.551Z,7.97
2022-11-27T17:09:00.440Z,8.08
2022-11-27T17:10:00.433Z,8.14
2022-11-27T17:11:04.603Z,8.02
2022-11-27T17:12:01.416Z,8.08
2022-11-27T17:13:00.376Z,8.08
2022-11-27T17:14:00.367Z,8.03
2022-11-27T17:15:00.355Z,7.94
2022-11-27T17:16:00.379Z,7.93
2022-11-27T17:17:00.419Z,7.97
2022-11-27T17:18:00.452Z,7.94
2022-11-27T17:19:00.332Z,7.90
2022-11-27T17:20:00.578Z,7.94
2022-11-27T17:21:00.303Z,8.04
2022-11-27T17:22:00.277Z,8.10
2022-11-27T17:23:00.303Z,8.12
2022-11-27T17:24:00.252Z,8.14
2022-11-27T17:25:00.263Z,8.02
2022-11-27T17:26:00.244Z,8.08
2022-11-27T17:27:00.217Z,8.00
2022-11-27T17:28:00.231Z,7.96
2022-11-27T17:29:00.208Z,8.04
2022-11-27T17:30:00.192Z,7.97
2022-11-27T17:31:00.169Z,7.92
2022-11-27T17:32:00.351Z,7.89
2022-11-27T17:33:00.165Z,7.93
2022-11-27T17:34:00.279Z,7.96
2022-11-27T17:35:00.124Z,7.93
2022-11-27T17:36:00.257Z,7.92
2022-11-27T17:37:00.111Z,7.85
2022-11-27T17:38:00.108Z,7.93
2022-11-27T17:39:00.095Z,7.93
2022-11-27T17:40:00.119Z,7.93
2022-11-27T17:41:00.074Z,7.85
2022-11-27T17:42:00.049Z,7.93
2022-11-27T17:43:00.052Z,8.07
2022-11-27T17:44:00.051Z,7.99
2022-11-27T17:45:00.025Z,7.93
2022-11-27T17:46:00.087Z,7.97
2022-11-27T17:46:59.990Z,7.92
2022-11-27T17:47:59.996Z,7.89
2022-11-27T17:48:59.988Z,7.99
2022-11-27T17:50:00.134Z,7.89
2022-11-27T17:50:59.946Z,7.94
2022-11-27T17:52:04.865Z,7.94
2022-11-27T17:53:00.935Z,7.93
2022-11-27T17:53:59.916Z,8.03
2022-11-27T17:54:59.910Z,8.03
2022-11-27T17:55:59.917Z,7.97
2022-11-27T17:56:59.890Z,7.89
2022-11-27T17:57:59.867Z,8.03
2022-11-27T17:58:59.871Z,7.94
2022-11-27T17:59:59.853Z,7.93
2022-11-27T18:00:59.930Z,7.81
2022-11-27T18:01:59.899Z,7.97
2022-11-27T18:03:03.478Z,7.99
2022-11-27T18:04:00.817Z,7.96
2022-11-27T18:04:59.789Z,7.93
2022-11-27T18:05:59.902Z,7.87
2022-11-27T18:06:59.789Z,7.96
2022-11-27T18:07:59.807Z,7.89
2022-11-27T18:08:59.753Z,7.89
2022-11-27T18:09:59.759Z,7.89
2022-11-27T18:10:59.718Z,7.92
2022-11-27T18:11:59.732Z,7.82
2022-11-27T18:12:59.705Z,7.82
2022-11-27T18:13:59.698Z,7.82
2022-11-27T18:15:01.445Z,7.97
2022-11-27T18:15:59.851Z,7.85
2022-11-27T18:16:59.735Z,7.79
2022-11-27T18:17:59.656Z,7.78
2022-11-27T18:18:59.645Z,7.87
2022-11-27T18:19:59.618Z,7.81
2022-11-27T18:20:59.614Z,7.74
2022-11-27T18:21:59.738Z,7.67
2022-11-27T18:22:59.597Z,7.75
2022-11-27T18:24:22.395Z,7.82
2022-11-27T18:25:00.570Z,7.81
2022-11-27T18:25:59.618Z,7.74
2022-11-27T18:27:08.274Z,7.67
2022-11-27T18:28:00.537Z,7.77
2022-11-27T18:28:59.513Z,7.63
2022-11-27T18:29:59.505Z,7.72
2022-11-27T18:30:59.501Z,7.60
2022-11-27T18:31:59.670Z,7.60
2022-11-27T18:32:59.489Z,7.82
2022-11-27T18:33:59.460Z,7.62
2022-11-27T18:34:59.443Z,7.67
2022-11-27T18:35:59.443Z,7.63
2022-11-27T18:36:59.445Z,7.59
2022-11-27T18:37:59.562Z,7.52
2022-11-27T18:38:59.414Z,7.63
2022-11-27T18:39:59.389Z,7.49
2022-11-27T18:40:59.387Z,7.60
2022-11-27T18:41:59.370Z,7.52
2022-11-27T18:42:59.373Z,7.56
2022-11-27T18:43:59.438Z,7.69
2022-11-27T18:44:59.348Z,7.63
2022-11-27T18:45:59.393Z,7.67
2022-11-27T18:46:59.306Z,7.59
2022-11-27T18:47:59.317Z,7.60
2022-11-27T18:48:59.300Z,7.59
2022-11-27T18:49:59.291Z,7.60
2022-11-27T18:50:59.262Z,7.47
2022-11-27T18:51:59.298Z,7.55
2022-11-27T18:52:59.241Z,7.62